createdAt,value
2022-12-01T00:00:06.780Z,14.43
2022-12-01T00:02:34.229Z,15.30
2022-12-01T00:05:02.463Z,14.80
2022-12-01T00:07:35.129Z,15.00
2022-12-01T00:10:23.411Z,14.80
2022-12-01T00:13:00.300Z,14.52
2022-12-01T00:15:37.325Z,15.50
2022-12-01T00:18:06.906Z,15.30
2022-12-01T00:20:35.680Z,15.52
2022-12-01T00:23:14.036Z,15.65
2022-12-01T00:25:43.712Z,15.90
2022-12-01T00:28:38.081Z,15.43
2022-12-01T00:31:10.822Z,16.08
2022-12-01T00:33:41.563Z,15.88
2022-12-01T00:36:19.423Z,16.27
2022-12-01T00:38:47.746Z,18.75
2022-12-01T00:41:21.373Z,16.55
2022-12-01T00:44:01.284Z,16.85
2022-12-01T00:46:28.856Z,16.05
2022-12-01T00:48:56.335Z,15.88
2022-12-01T00:51:24.473Z,16.05
2022-12-01T00:53:51.886Z,15.85
2022-12-01T00:56:21.011Z,15.70
2022-12-01T00:58:48.321Z,16.00
2022-12-01T01:01:16.025Z,17.08
2022-12-01T01:03:43.449Z,16.63
2022-12-01T01:06:13.470Z,16.35
2022-12-01T01:08:41.731Z,16.77
2022-12-01T01:11:12.263Z,16.35
2022-12-01T01:13:42.045Z,17.02
2022-12-01T01:16:21.018Z,15.48
2022-12-01T01:18:49.357Z,15.05
2022-12-01T01:21:22.501Z,15.48
2022-12-01T01:23:52.541Z,16.85
2022-12-01T01:27:24.698Z,15.63
2022-12-01T01:30:20.484Z,15.73
2022-12-01T01:32:24.200Z,15.85
2022-12-01T01:35:06.822Z,15.57
2022-12-01T01:37:56.883Z,17.13
2022-12-01T01:40:52.623Z,16.02
2022-12-01T01:43:41.273Z,16.75
2022-12-01T01:46:26.095Z,16.48
2022-12-01T01:49:04.065Z,16.52
2022-12-01T01:51:56.718Z,17.45
2022-12-01T01:54:38.583Z,16.98
2022-12-01T01:57:20.409Z,16.20
2022-12-01T02:00:04.346Z,16.60
2022-12-01T02:02:47.689Z,15.68
2022-12-01T02:05:42.067Z,16.08
2022-12-01T02:08:12.490Z,17.23
2022-12-01T02:11:20.220Z,17.60
2022-12-01T02:14:12.745Z,16.58
2022-12-01T02:17:52.281Z,16.85
2022-12-01T02:21:08.466Z,16.23
2022-12-01T02:24:12.828Z,16.17
2022-12-01T02:27:05.368Z,16.70
2022-12-01T02:30:17.496Z,15.88
2022-12-01T02:33:24.468Z,16.33
2022-12-01T02:36:54.380Z,16.50
2022-12-01T02:39:56.052Z,15.77
2022-12-01T02:43:04.977Z,16.25
2022-12-01T02:45:51.557Z,15.93
2022-12-01T02:48:41.491Z,15.90
2022-12-01T02:51:24.751Z,15.57
2022-12-01T02:53:53.728Z,16.85
2022-12-01T02:56:24.132Z,15.80
2022-12-01T02:58:58.999Z,16.38
2022-12-01T03:01:52.453Z,15.57
2022-12-01T03:04:45.624Z,15.65
2022-12-01T03:07:21.239Z,16.73
2022-12-01T03:10:25.849Z,16.00
2022-12-01T03:13:50.872Z,15.43
2022-12-01T03:16:50.848Z,15.85
2022-12-01T03:19:40.589Z,15.90
2022-12-01T03:22:31.967Z,15.98
2022-12-01T03:25:04.799Z,15.77
2022-12-01T03:27:44.109Z,16.02
2022-12-01T03:30:18.750Z,15.88
2022-12-01T03:33:01.250Z,15.95
2022-12-01T03:35:41.855Z,17.35
2022-12-01T03:38:24.614Z,15.85
2022-12-01T03:41:08.652Z,16.55
2022-12-01T03:43:44.754Z,16.08
2022-12-01T03:46:44.455Z,16.85
2022-12-01T03:49:15.436Z,16.33
2022-12-01T03:52:01.091Z,16.58
2022-12-01T03:55:23.751Z,17.35
2022-12-01T03:58:14.629Z,15.60
2022-12-01T04:00:43.865Z,17.83
2022-12-01T04:03:20.341Z,16.38
2022-12-01T04:05:47.771Z,17.20
2022-12-01T04:08:15.480Z,17.23
2022-12-01T04:10:47.914Z,17.77
2022-12-01T04:13:24.140Z,16.25
2022-12-01T04:15:53.636Z,17.08
2022-12-01T04:18:22.135Z,15.38
2022-12-01T04:20:50.781Z,16.77
2022-12-01T04:23:36.863Z,16.15
2022-12-01T04:26:05.327Z,16.40
2022-12-01T04:28:32.764Z,15.45
2022-12-01T04:31:00.108Z,17.27
2022-12-01T04:33:29.636Z,15.95
2022-12-01T04:36:01.459Z,16.90
2022-12-01T04:38:30.819Z,15.95
2022-12-01T04:40:59.084Z,17.20
2022-12-01T04:43:26.592Z,16.92
2022-12-01T04:45:55.073Z,16.98
2022-12-01T04:48:22.348Z,16.70
2022-12-01T04:50:49.982Z,16.02
2022-12-01T04:53:17.246Z,16.33
2022-12-01T04:55:44.515Z,15.80
2022-12-01T04:58:11.844Z,16.55
2022-12-01T05:00:39.419Z,16.90
2022-12-01T05:03:09.646Z,15.85
2022-12-01T05:05:43.576Z,16.30
2022-12-01T05:08:11.728Z,15.98
2022-12-01T05:10:39.125Z,16.02
2022-12-01T05:13:06.610Z,14.55
2022-12-01T05:15:34.321Z,15.10
2022-12-01T05:18:14.735Z,16.40
2022-12-01T05:21:01.145Z,15.73
2022-12-01T05:23:36.948Z,15.70
2022-12-01T05:26:08.241Z,16.13
2022-12-01T05:28:38.805Z,16.27
2022-12-01T05:31:06.307Z,16.67
2022-12-01T05:33:33.850Z,17.50
2022-12-01T05:36:01.130Z,16.58
2022-12-01T05:38:28.405Z,17.60
2022-12-01T05:40:56.387Z,16.98
2022-12-01T05:43:29.158Z,15.93
2022-12-01T05:45:58.351Z,16.27
2022-12-01T05:48:26.259Z,17.95
2022-12-01T05:50:56.031Z,17.00
2022-12-01T05:53:23.348Z,18.02
2022-12-01T05:55:54.839Z,17.67
2022-12-01T05:58:22.946Z,17.02
2022-12-01T06:00:50.648Z,18.45
2022-12-01T06:03:17.879Z,17.85
2022-12-01T06:05:45.108Z,18.50
2022-12-01T06:08:12.409Z,17.65
2022-12-01T06:10:39.996Z,18.00
2022-12-01T06:13:07.429Z,18.88
2022-12-01T06:15:34.663Z,19.45
2022-12-01T06:18:02.425Z,19.05
2022-12-01T06:20:29.959Z,19.08
2022-12-01T06:23:10.197Z,19.08
2022-12-01T06:25:37.782Z,19.40
2022-12-01T06:28:20.128Z,19.70
2022-12-01T06:30:54.508Z,19.38
2022-12-01T06:33:25.263Z,19.15
2022-12-01T06:36:06.992Z,18.85
2022-12-01T06:38:37.157Z,17.42
2022-12-01T06:41:05.940Z,19.45
2022-12-01T06:43:40.815Z,19.60
2022-12-01T06:46:08.082Z,19.67
2022-12-01T06:48:35.544Z,20.48
2022-12-01T06:51:10.782Z,19.23
2022-12-01T06:53:40.809Z,19.55
2022-12-01T06:56:08.202Z,20.45
2022-12-01T06:58:35.765Z,19.75
2022-12-01T07:01:12.891Z,19.73
2022-12-01T07:03:40.252Z,20.88
2022-12-01T07:06:10.454Z,20.20
2022-12-01T07:08:38.099Z,19.33
2022-12-01T07:11:13.959Z,19.75
2022-12-01T07:13:45.515Z,19.88
2022-12-01T07:16:13.356Z,19.33
2022-12-01T07:18:41.227Z,20.15
2022-12-01T07:21:13.946Z,20.83
2022-12-01T07:23:41.545Z,21.15
2022-12-01T07:26:37.654Z,20.00
2022-12-01T07:29:28.573Z,20.75
2022-12-01T07:32:10.654Z,20.40
2022-12-01T07:34:40.109Z,20.70
2022-12-01T07:37:07.500Z,20.42
2022-12-01T07:39:37.136Z,20.55
2022-12-01T07:42:04.845Z,21.08
2022-12-01T07:44:32.255Z,21.05
2022-12-01T07:46:59.902Z,20.17
2022-12-01T07:49:27.398Z,20.58
2022-12-01T07:51:54.960Z,21.33
2022-12-01T07:54:22.425Z,19.88
2022-12-01T07:56:49.813Z,21.52
2022-12-01T07:59:17.636Z,20.70
2022-12-01T08:01:46.374Z,20.98
2022-12-01T08:04:13.847Z,20.58
2022-12-01T08:06:43.556Z,21.30
2022-12-01T08:09:10.835Z,20.38
2022-12-01T08:11:38.115Z,20.33
2022-12-01T08:14:07.983Z,21.48
2022-12-01T08:16:38.563Z,20.88
2022-12-01T08:19:12.481Z,21.10
2022-12-01T08:21:40.013Z,21.48
2022-12-01T08:24:08.204Z,21.52
2022-12-01T08:26:35.405Z,21.88
2022-12-01T08:29:06.275Z,20.42
2022-12-01T08:31:36.614Z,20.30
2022-12-01T08:34:10.036Z,20.88
2022-12-01T08:36:37.516Z,20.92
2022-12-01T08:39:07.529Z,21.40
2022-12-01T08:41:35.174Z,21.10
2022-12-01T08:44:02.437Z,19.65
2022-12-01T08:46:35.129Z,20.25
2022-12-01T08:49:06.987Z,21.30
2022-12-01T08:51:36.388Z,20.80
2022-12-01T08:54:05.029Z,20.58
2022-12-01T08:56:41.679Z,19.85
2022-12-01T08:59:09.739Z,19.88
2022-12-01T09:01:57.283Z,19.35
2022-12-01T09:04:26.938Z,20.98
2022-12-01T09:06:57.663Z,20.63
2022-12-01T09:09:28.887Z,20.88
2022-12-01T09:11:57.502Z,20.75
2022-12-01T09:14:25.081Z,20.55
2022-12-01T09:16:52.699Z,19.73
2022-12-01T09:19:24.933Z,20.60
2022-12-01T09:23:33.368Z,20.73
2022-12-01T09:25:28.457Z,20.00
2022-12-01T09:28:14.960Z,19.38
2022-12-01T09:31:10.078Z,20.05
2022-12-01T09:33:38.949Z,19.98
2022-12-01T09:36:26.484Z,19.40
2022-12-01T09:38:57.132Z,19.67
2022-12-01T09:45:30.815Z,18.88
2022-12-01T09:48:07.954Z,19.98
2022-12-01T09:50:38.296Z,19.35
2022-12-01T09:53:18.619Z,19.95
2022-12-01T09:55:46.869Z,19.65
2022-12-01T09:58:26.200Z,20.30
2022-12-01T10:00:55.261Z,19.52
2022-12-01T10:03:46.298Z,19.67
2022-12-01T10:06:30.488Z,19.42
2022-12-01T10:09:56.441Z,19.38
2022-12-01T10:12:36.372Z,19.38
2022-12-01T10:15:55.956Z,19.75
2022-12-01T10:19:08.149Z,18.60
2022-12-01T10:22:10.743Z,20.15
2022-12-01T10:25:20.454Z,19.25
2022-12-01T10:28:22.969Z,18.52
2022-12-01T10:31:02.959Z,17.98
2022-12-01T10:34:12.358Z,18.95
2022-12-01T10:36:40.020Z,19.52
2022-12-01T10:39:17.989Z,18.77
2022-12-01T10:41:48.753Z,18.05
2022-12-01T10:50:38.986Z,19.80
2022-12-01T10:53:38.398Z,18.00
2022-12-01T10:56:30.670Z,19.80
2022-12-01T10:59:28.136Z,17.73
2022-12-01T11:02:06.457Z,18.55
2022-12-01T11:05:37.965Z,18.70
2022-12-01T11:07:50.668Z,18.30
2022-12-01T11:10:32.676Z,17.27
2022-12-01T11:13:39.852Z,18.10
2022-12-01T11:16:42.363Z,17.67
2022-12-01T11:19:40.056Z,18.42
2022-12-01T11:22:32.248Z,17.33
2022-12-01T11:25:22.513Z,17.58
2022-12-01T11:28:03.987Z,18.85
2022-12-01T11:34:28.859Z,17.85
2022-12-01T11:37:08.396Z,17.48
2022-12-01T11:39:41.732Z,17.95
2022-12-01T11:42:26.442Z,18.08
2022-12-01T11:45:27.855Z,16.27
2022-12-01T11:48:30.357Z,17.83
2022-12-01T11:51:24.251Z,17.38
2022-12-01T11:54:27.290Z,17.40
2022-12-01T11:57:31.951Z,17.20
2022-12-01T11:59:44.571Z,17.40
2022-12-01T12:02:35.230Z,16.75
2022-12-01T12:05:40.352Z,16.83
2022-12-01T12:08:30.818Z,17.02
2022-12-01T12:11:20.791Z,16.80
2022-12-01T12:14:31.271Z,17.20
2022-12-01T12:17:43.409Z,16.05
2022-12-01T12:21:03.095Z,16.05
2022-12-01T12:24:00.931Z,16.40
2022-12-01T12:26:50.740Z,16.75
2022-12-01T12:30:11.808Z,16.55
2022-12-01T12:32:57.692Z,15.85
2022-12-01T12:35:37.703Z,16.67
2022-12-01T12:38:44.657Z,16.02
2022-12-01T12:41:58.169Z,15.68
2022-12-01T12:45:22.080Z,15.98
2022-12-01T12:49:12.026Z,16.50
2022-12-01T12:51:56.415Z,15.80
2022-12-01T12:55:06.328Z,16.20
2022-12-01T12:57:45.589Z,17.27
2022-12-01T13:00:26.598Z,16.65
2022-12-01T13:03:15.405Z,16.30
2022-12-01T13:06:09.153Z,15.75
2022-12-01T13:09:44.773Z,17.10
2022-12-01T13:13:19.773Z,16.13
2022-12-01T13:16:04.819Z,16.90
2022-12-01T13:18:53.094Z,16.40
2022-12-01T13:21:44.250Z,17.42
2022-12-01T13:24:54.277Z,17.55
2022-12-01T13:27:57.087Z,17.23
2022-12-01T13:31:32.171Z,17.38
2022-12-01T13:34:41.469Z,16.23
2022-12-01T13:37:11.055Z,15.65
2022-12-01T13:39:41.779Z,17.13
2022-12-01T13:42:26.398Z,16.42
2022-12-01T13:45:02.490Z,17.50
2022-12-01T13:47:54.770Z,16.75
2022-12-01T13:50:43.037Z,17.25
2022-12-01T13:53:45.211Z,15.75
2022-12-01T14:00:41.723Z,16.52
2022-12-01T14:03:15.602Z,16.52
2022-12-01T14:06:21.828Z,16.50
2022-12-01T14:08:58.074Z,16.40
2022-12-01T14:11:30.024Z,15.98
2022-12-01T14:14:12.036Z,15.50
2022-12-01T14:17:02.555Z,15.50
2022-12-01T14:19:46.992Z,17.35
2022-12-01T14:22:45.589Z,16.40
2022-12-01T14:25:22.521Z,15.75
2022-12-01T14:27:55.636Z,15.85
2022-12-01T14:30:46.915Z,16.75
2022-12-01T14:33:39.107Z,15.52
2022-12-01T14:36:23.060Z,16.98
2022-12-01T14:38:57.715Z,16.10
2022-12-01T14:41:39.675Z,16.70
2022-12-01T14:44:44.018Z,17.13
2022-12-01T14:47:11.645Z,16.70
2022-12-01T14:50:06.910Z,16.08
2022-12-01T14:52:53.857Z,15.95
2022-12-01T14:55:40.768Z,16.38
2022-12-01T14:58:32.153Z,16.60
2022-12-01T15:01:09.137Z,15.50
2022-12-01T15:03:51.502Z,16.08
2022-12-01T15:06:25.994Z,15.55
2022-12-01T15:12:07.666Z,16.30
2022-12-01T15:14:48.732Z,16.42
2022-12-01T15:17:34.603Z,16.80
2022-12-01T15:20:03.246Z,15.45
2022-12-01T15:22:33.872Z,16.23
2022-12-01T15:25:15.048Z,16.02
2022-12-01T15:27:44.203Z,17.90
2022-12-01T15:30:18.798Z,16.63
2022-12-01T15:32:46.442Z,16.55
2022-12-01T15:35:25.019Z,16.30
2022-12-01T15:37:54.912Z,17.10
2022-12-01T15:43:33.067Z,17.00
2022-12-01T15:46:12.911Z,16.30
2022-12-01T15:48:43.113Z,17.10
2022-12-01T15:51:35.363Z,19.02
2022-12-01T15:54:33.934Z,21.17
2022-12-01T15:57:03.489Z,16.67
2022-12-01T15:59:45.098Z,15.95
2022-12-01T16:02:32.615Z,17.23
2022-12-01T16:05:16.504Z,17.15
2022-12-01T16:08:12.813Z,15.88
2022-12-01T16:10:36.985Z,15.65
2022-12-01T16:13:40.340Z,17.70
2022-12-01T16:16:45.085Z,16.23
2022-12-01T16:19:12.395Z,17.42
2022-12-01T16:21:58.728Z,17.63
2022-12-01T16:24:48.306Z,17.33
2022-12-01T16:27:31.185Z,18.77
2022-12-01T16:30:11.216Z,18.63
2022-12-01T16:32:42.680Z,17.67
2022-12-01T16:35:31.723Z,17.42
2022-12-01T16:38:28.786Z,17.02
2022-12-01T16:41:01.485Z,17.45
2022-12-01T16:43:37.128Z,17.70
2022-12-01T16:46:13.662Z,18.35
2022-12-01T16:48:41.425Z,17.65
2022-12-01T16:51:14.601Z,19.13
2022-12-01T16:53:51.173Z,18.55
2022-12-01T16:56:19.296Z,19.08
2022-12-01T16:58:46.738Z,19.27
2022-12-01T17:01:14.459Z,17.75
2022-12-01T17:03:44.920Z,17.30
2022-12-01T17:06:22.752Z,17.88
2022-12-01T17:08:50.523Z,17.40
2022-12-01T17:11:18.290Z,18.45
2022-12-01T17:13:46.073Z,18.35
2022-12-01T17:16:18.760Z,19.65
2022-12-01T17:18:48.896Z,18.40
2022-12-01T17:21:18.514Z,18.75
2022-12-01T17:23:46.357Z,18.08
2022-12-01T17:26:18.080Z,18.08
2022-12-01T17:28:46.069Z,17.95
2022-12-01T17:31:14.948Z,17.63
2022-12-01T17:33:42.842Z,18.48
2022-12-01T17:36:15.540Z,19.33
2022-12-01T17:38:46.899Z,17.73
2022-12-01T17:41:21.974Z,17.90
2022-12-01T17:43:52.198Z,18.15
2022-12-01T17:46:23.291Z,18.50
2022-12-01T17:48:50.765Z,18.15
2022-12-01T17:51:18.520Z,17.83
2022-12-01T17:53:50.482Z,19.33
2022-12-01T17:56:23.143Z,18.40
2022-12-01T17:58:51.351Z,18.92
2022-12-01T18:01:30.261Z,18.70
2022-12-01T18:04:15.451Z,18.42
2022-12-01T18:06:54.555Z,19.45
2022-12-01T18:09:22.541Z,19.17
2022-12-01T18:11:50.767Z,18.33
2022-12-01T18:14:18.356Z,18.58
2022-12-01T18:16:46.269Z,18.10
2022-12-01T18:19:39.153Z,19.30
2022-12-01T18:22:18.683Z,18.80
2022-12-01T18:24:57.990Z,18.30
2022-12-01T18:27:25.431Z,19.33
2022-12-01T18:29:55.073Z,19.52
2022-12-01T18:32:22.551Z,20.30
2022-12-01T18:34:50.210Z,18.35
2022-12-01T18:37:23.954Z,18.88
2022-12-01T18:39:51.732Z,19.17
2022-12-01T18:42:19.129Z,19.55
2022-12-01T18:44:46.802Z,18.38
2022-12-01T18:47:14.101Z,20.65
2022-12-01T18:49:47.672Z,19.95
2022-12-01T18:52:15.225Z,19.05
2022-12-01T18:54:46.965Z,19.25
2022-12-01T18:57:14.967Z,19.90
2022-12-01T18:59:42.376Z,20.67
2022-12-01T19:02:14.289Z,18.80
2022-12-01T19:04:44.589Z,19.77
2022-12-01T19:07:12.685Z,18.40
2022-12-01T19:09:41.362Z,19.58
2022-12-01T19:12:09.661Z,18.85
2022-12-01T19:14:37.009Z,18.05
2022-12-01T19:17:06.842Z,18.08
2022-12-01T19:19:48.812Z,18.70
2022-12-01T19:22:22.007Z,18.98
2022-12-01T19:25:11.222Z,18.77
2022-12-01T19:27:38.489Z,19.17
2022-12-01T19:30:08.863Z,19.23
2022-12-01T19:32:36.481Z,17.67
2022-12-01T19:35:04.191Z,18.13
2022-12-01T19:37:31.469Z,19.02
2022-12-01T19:39:58.884Z,19.85
2022-12-01T19:42:29.189Z,18.67
2022-12-01T19:44:59.320Z,17.92
2022-12-01T19:47:35.359Z,18.13
2022-12-01T19:50:03.172Z,18.20
2022-12-01T19:52:33.107Z,17.83
2022-12-01T19:55:00.487Z,18.98
2022-12-01T19:57:32.034Z,18.05
2022-12-01T19:59:59.365Z,18.35
2022-12-01T20:02:29.303Z,17.90
2022-12-01T20:04:57.073Z,18.77
2022-12-01T20:07:24.385Z,19.38
2022-12-01T20:09:51.807Z,19.00
2022-12-01T20:12:19.502Z,19.23
2022-12-01T20:14:46.940Z,18.90
2022-12-01T20:17:16.065Z,18.83
2022-12-01T20:19:43.551Z,19.67
2022-12-01T20:22:11.060Z,19.15
2022-12-01T20:24:41.152Z,19.08
2022-12-01T20:27:11.737Z,18.42
2022-12-01T20:29:43.850Z,18.88
2022-12-01T20:32:23.644Z,17.83
2022-12-01T20:34:51.853Z,18.83
2022-12-01T20:37:21.491Z,18.77
2022-12-01T20:39:48.814Z,18.75
2022-12-01T20:42:19.300Z,18.50
2022-12-01T20:44:46.786Z,19.05
2022-12-01T20:47:16.700Z,18.95
2022-12-01T20:50:33.454Z,18.98
2022-12-01T20:53:14.343Z,18.70
2022-12-01T20:55:42.045Z,18.67
2022-12-01T20:58:09.918Z,18.60
2022-12-01T21:00:46.952Z,18.95
2022-12-01T21:03:15.368Z,19.52
2022-12-01T21:05:44.025Z,18.15
2022-12-01T21:08:14.451Z,19.45
2022-12-01T21:10:46.441Z,19.33
2022-12-01T21:13:42.333Z,20.00
2022-12-01T21:16:28.294Z,18.73
2022-12-01T21:19:12.323Z,19.83
2022-12-01T21:21:41.906Z,19.05
2022-12-01T21:24:44.543Z,21.45
2022-12-01T21:27:17.777Z,19.77
2022-12-01T21:29:50.205Z,20.50
2022-12-01T21:32:29.809Z,21.02
2022-12-01T21:35:25.236Z,19.17
2022-12-01T21:38:04.642Z,20.40
2022-12-01T21:40:32.208Z,19.05
2022-12-01T21:43:22.819Z,19.38
2022-12-01T21:46:09.478Z,19.08
2022-12-01T21:48:37.455Z,20.80
2022-12-01T21:51:23.996Z,19.40
2022-12-01T21:54:06.302Z,19.05
2022-12-01T21:56:56.239Z,18.67
2022-12-01T21:59:24.604Z,19.50
2022-12-01T22:01:57.787Z,18.05
2022-12-01T22:04:34.534Z,18.95
2022-12-01T22:07:04.543Z,19.38
2022-12-01T22:09:36.529Z,20.15
2022-12-01T22:12:24.652Z,20.58
2022-12-01T22:15:02.145Z,18.60
2022-12-01T22:17:32.038Z,18.90
2022-12-01T22:20:21.869Z,20.48
2022-12-01T22:22:53.210Z,19.30
2022-12-01T22:25:31.455Z,19.15
2022-12-01T22:28:03.143Z,18.55
2022-12-01T22:30:55.078Z,19.02
2022-12-01T22:33:38.634Z,19.08
2022-12-01T22:36:43.270Z,19.45
2022-12-01T22:39:58.909Z,18.85
2022-12-01T22:42:37.579Z,19.30
2022-12-01T22:45:25.628Z,20.05
2022-12-01T22:48:01.149Z,20.85
2022-12-01T22:50:50.079Z,19.83
2022-12-01T22:54:04.583Z,19.75
2022-12-01T22:57:37.114Z,19.38
2022-12-01T23:00:23.441Z,19.23
2022-12-01T23:02:56.633Z,19.85
2022-12-01T23:05:28.014Z,20.02
2022-12-01T23:07:58.042Z,20.27
2022-12-01T23:10:31.824Z,19.55
2022-12-01T23:13:13.128Z,19.70
2022-12-01T23:15:45.914Z,19.80
2022-12-01T23:18:21.940Z,20.33
2022-12-01T23:20:59.579Z,19.27
2022-12-01T23:23:35.941Z,18.55
2022-12-01T23:26:10.898Z,19.60
2022-12-01T23:28:40.652Z,19.63
2022-12-01T23:31:11.303Z,19.90
2022-12-01T23:33:38.929Z,20.10
2022-12-01T23:36:32.819Z,20.20
2022-12-01T23:39:12.070Z,20.95
2022-12-01T23:41:46.862Z,19.40
2022-12-01T23:44:38.686Z,19.13
2022-12-01T23:47:27.122Z,19.20
2022-12-01T23:50:14.870Z,20.00
2022-12-01T23:53:07.848Z,19.45
2022-12-01T23:55:57.861Z,18.58
2022-12-01T23:58:38.358Z,19.17
